LFPM 191930Z AUTO 33007KT 9999 -RA NSC 09/08 Q1018

Les avions qui composent notre flotte

Avion Robin DR400-120

Avion école

F-GAHP
   * tarif promotionnel appliqué pendant la formation des élèves non brevetés


F-GAHP Planche